Time;durP1;ratioP1;P1;durP2;ratioP2;P2;SDS_P1;SDS_P2;PMS_P1;PMS_P2;Temp;Humidity;BMP_temperature;BMP_pressure;BME280_temperature;BME280_humidity;BME280_pressure;Samples;Min_cycle;Max_cycle;Signal;HPM_P1;HPM_P2
2021/10/17 00:00:40;;;;;;;10.02;6.85;;;7.20;99.90;;;;;;2069813;28;20096;-68
2021/10/17 00:01:41;;;;;;;12.02;7.10;;;7.30;99.90;;;;;;2066226;28;20105;-68
2021/10/17 00:02:43;;;;;;;12.05;7.28;;;7.20;99.90;;;;;;2072183;28;20030;-68
2021/10/17 00:03:43;;;;;;;11.95;7.38;;;7.20;99.90;;;;;;2064600;28;20034;-68
2021/10/17 00:04:44;;;;;;;8.43;6.63;;;7.20;99.90;;;;;;2063868;28;20027;-67
2021/10/17 00:05:45;;;;;;;8.60;6.18;;;7.20;99.90;;;;;;2063816;28;20101;-68
2021/10/17 00:06:45;;;;;;;9.00;6.70;;;7.20;99.90;;;;;;2068947;28;20022;-68
2021/10/17 00:07:47;;;;;;;13.02;7.25;;;7.20;99.90;;;;;;2071466;28;20045;-68
2021/10/17 00:08:47;;;;;;;11.30;7.07;;;7.20;99.90;;;;;;2063803;28;20030;-67
2021/10/17 00:09:48;;;;;;;11.77;7.22;;;7.20;99.90;;;;;;2068015;28;20117;-67
2021/10/17 00:10:49;;;;;;;9.88;7.47;;;7.20;99.90;;;;;;2063595;28;20719;-68
2021/10/17 00:11:49;;;;;;;11.73;7.03;;;7.20;99.90;;;;;;2064245;28;20037;-67
2021/10/17 00:12:50;;;;;;;11.38;7.75;;;7.20;99.90;;;;;;2064314;28;20092;-68
2021/10/17 00:13:51;;;;;;;12.38;7.40;;;7.10;99.90;;;;;;2070785;28;20038;-67
2021/10/17 00:14:52;;;;;;;13.82;7.55;;;7.10;99.90;;;;;;2063547;28;20446;-67
2021/10/17 00:15:53;;;;;;;14.43;7.28;;;7.10;99.90;;;;;;2064020;28;20104;-68
2021/10/17 00:16:53;;;;;;;11.95;7.25;;;7.10;99.90;;;;;;2071467;28;20048;-67
2021/10/17 00:17:55;;;;;;;14.35;7.47;;;7.10;99.90;;;;;;2069063;28;20031;-67
2021/10/17 00:18:55;;;;;;;11.27;6.78;;;7.20;99.90;;;;;;2070616;28;20109;-68
2021/10/17 00:19:56;;;;;;;11.68;7.57;;;7.10;99.90;;;;;;2071602;28;20508;-67
2021/10/17 00:20:57;;;;;;;8.93;7.43;;;7.10;99.90;;;;;;2069353;28;20090;-67
2021/10/17 00:21:58;;;;;;;11.52;6.78;;;7.10;99.90;;;;;;2063793;28;20061;-67
2021/10/17 00:22:58;;;;;;;10.57;7.07;;;7.10;99.90;;;;;;2064049;28;20049;-67
2021/10/17 00:23:59;;;;;;;8.85;6.60;;;7.10;99.90;;;;;;2065086;28;20101;-67
2021/10/17 00:24:59;;;;;;;9.20;6.65;;;7.10;99.90;;;;;;2063753;28;20194;-68
2021/10/17 00:26:00;;;;;;;12.20;7.05;;;7.20;99.90;;;;;;2067408;28;20097;-68
2021/10/17 00:27:01;;;;;;;10.82;6.93;;;7.20;99.90;;;;;;2071147;28;20108;-67
2021/10/17 00:28:01;;;;;;;10.52;6.50;;;7.10;99.90;;;;;;2064934;28;20030;-67
2021/10/17 00:29:02;;;;;;;9.10;6.07;;;7.20;99.90;;;;;;2066523;28;20025;-67
2021/10/17 00:30:04;;;;;;;13.73;7.13;;;7.10;99.90;;;;;;2063739;28;20042;-67
2021/10/17 00:31:05;;;;;;;10.30;7.30;;;7.20;99.90;;;;;;2064763;28;20076;-67
2021/10/17 00:32:08;;;;;;;12.60;7.10;;;7.20;99.90;;;;;;2069614;28;20030;-67
2021/10/17 00:33:10;;;;;;;14.65;7.88;;;7.20;99.90;;;;;;2063391;28;20037;-67
2021/10/17 00:34:11;;;;;;;10.85;6.78;;;7.10;99.90;;;;;;2070295;28;20105;-68
2021/10/17 00:35:13;;;;;;;8.90;6.22;;;7.10;99.90;;;;;;2071513;28;20018;-67
2021/10/17 00:36:16;;;;;;;11.32;6.70;;;7.10;99.90;;;;;;2063861;28;20046;-67
2021/10/17 00:37:18;;;;;;;11.98;7.10;;;7.10;99.90;;;;;;2068733;28;20014;-67
2021/10/17 00:38:18;;;;;;;10.68;8.10;;;7.20;99.90;;;;;;2070957;28;20014;-68
2021/10/17 00:39:19;;;;;;;9.90;7.63;;;7.10;99.90;;;;;;2064225;28;20030;-68
2021/10/17 00:40:22;;;;;;;9.80;7.43;;;7.10;99.90;;;;;;2063510;28;20031;-67
2021/10/17 00:41:23;;;;;;;9.93;7.75;;;7.10;99.90;;;;;;2069446;28;20656;-68
2021/10/17 00:42:23;;;;;;;10.95;7.72;;;7.10;99.90;;;;;;2072314;28;20060;-68
2021/10/17 00:43:24;;;;;;;11.98;7.68;;;7.10;99.90;;;;;;2072209;28;20132;-68
2021/10/17 00:44:24;;;;;;;17.17;7.70;;;7.10;99.90;;;;;;2069339;28;20021;-68
2021/10/17 00:45:30;;;;;;;8.45;7.03;;;7.10;99.90;;;;;;2067931;28;20367;-67
2021/10/17 00:46:30;;;;;;;11.25;7.13;;;7.10;99.90;;;;;;2069518;28;20193;-67
2021/10/17 00:47:31;;;;;;;10.35;7.82;;;7.20;99.90;;;;;;2063966;28;20068;-67
2021/10/17 00:48:32;;;;;;;12.43;7.53;;;7.20;99.90;;;;;;2064877;28;20034;-67
2021/10/17 00:49:32;;;;;;;8.30;7.25;;;7.10;99.90;;;;;;2070811;28;20030;-67
2021/10/17 00:50:34;;;;;;;8.63;7.15;;;7.20;99.90;;;;;;2069656;28;20038;-67
2021/10/17 00:51:34;;;;;;;12.40;7.80;;;7.20;99.90;;;;;;2070481;28;20478;-67
2021/10/17 00:52:40;;;;;;;12.18;8.25;;;7.20;99.90;;;;;;2063547;28;20359;-67
2021/10/17 00:53:42;;;;;;;10.50;7.65;;;7.20;99.90;;;;;;2063499;28;20026;-68
2021/10/17 00:54:45;;;;;;;13.25;8.38;;;7.20;99.90;;;;;;2071144;28;20437;-67
2021/10/17 00:55:47;;;;;;;10.52;8.05;;;7.20;99.90;;;;;;2065224;28;20124;-68
2021/10/17 00:56:47;;;;;;;9.57;7.38;;;7.20;99.90;;;;;;2070509;28;20030;-67
2021/10/17 00:57:48;;;;;;;12.18;8.30;;;7.20;99.90;;;;;;2071559;28;20025;-67
2021/10/17 00:58:49;;;;;;;9.30;7.40;;;7.20;99.90;;;;;;2071584;28;20030;-67
2021/10/17 00:59:50;;;;;;;12.27;8.45;;;7.20;99.90;;;;;;2071874;28;20021;-67
2021/10/17 01:00:50;;;;;;;11.15;7.40;;;7.20;99.90;;;;;;2067059;28;20041;-67
2021/10/17 01:01:51;;;;;;;9.18;7.25;;;7.20;99.90;;;;;;2070114;28;20097;-68
2021/10/17 01:02:52;;;;;;;11.50;7.93;;;7.10;99.90;;;;;;2070503;28;20113;-67
2021/10/17 01:03:52;;;;;;;16.60;8.77;;;7.10;99.90;;;;;;2063586;28;20031;-67
2021/10/17 01:04:53;;;;;;;13.13;8.68;;;7.20;99.90;;;;;;2063352;28;20387;-67
2021/10/17 01:05:54;;;;;;;11.60;8.63;;;7.10;99.90;;;;;;2069902;28;20026;-67
2021/10/17 01:06:55;;;;;;;10.43;7.45;;;7.20;99.90;;;;;;2063596;28;20426;-67
2021/10/17 01:07:57;;;;;;;11.40;7.28;;;7.20;99.90;;;;;;2067051;28;20058;-67
2021/10/17 01:08:58;;;;;;;9.90;7.50;;;7.20;99.90;;;;;;2070713;28;20101;-68
2021/10/17 01:10:01;;;;;;;12.52;8.27;;;7.20;99.90;;;;;;2070080;28;20026;-67
2021/10/17 01:11:01;;;;;;;11.18;8.32;;;7.20;99.90;;;;;;2067435;28;20023;-68
2021/10/17 01:12:03;;;;;;;10.35;7.93;;;7.20;99.90;;;;;;2071241;28;20076;-67
2021/10/17 01:13:03;;;;;;;11.32;9.15;;;7.20;99.90;;;;;;2071314;28;20109;-67
2021/10/17 01:14:04;;;;;;;11.45;8.90;;;7.10;99.90;;;;;;2070827;28;20080;-67
2021/10/17 01:15:05;;;;;;;16.80;9.73;;;7.20;99.90;;;;;;2063725;28;20023;-68
2021/10/17 01:16:06;;;;;;;12.65;9.10;;;7.10;99.90;;;;;;2063431;28;20026;-68
2021/10/17 01:17:07;;;;;;;9.40;7.95;;;7.10;99.90;;;;;;2063561;28;20041;-68
2021/10/17 01:18:08;;;;;;;10.90;8.35;;;7.10;99.90;;;;;;2066391;28;20497;-68
2021/10/17 01:19:08;;;;;;;11.27;8.70;;;7.20;99.90;;;;;;2069023;28;20508;-68
2021/10/17 01:20:10;;;;;;;10.85;7.93;;;7.10;99.90;;;;;;2070899;28;20077;-67
2021/10/17 01:21:10;;;;;;;11.88;8.25;;;7.10;99.90;;;;;;2070796;28;20025;-67
2021/10/17 01:22:11;;;;;;;10.50;7.00;;;7.20;99.90;;;;;;2063532;28;20489;-67
2021/10/17 01:23:12;;;;;;;8.63;7.30;;;7.20;99.90;;;;;;2063203;28;20125;-67
2021/10/17 01:24:13;;;;;;;13.50;7.40;;;7.20;99.90;;;;;;2064201;28;20094;-67
2021/10/17 01:25:14;;;;;;;11.30;8.43;;;7.20;99.90;;;;;;2067785;28;20027;-68
2021/10/17 01:26:14;;;;;;;10.68;7.85;;;7.20;99.90;;;;;;2065621;28;20041;-67
2021/10/17 01:27:15;;;;;;;11.93;7.88;;;7.10;99.90;;;;;;2068934;28;20170;-68
2021/10/17 01:28:16;;;;;;;12.00;7.57;;;7.10;99.90;;;;;;2065689;28;20037;-68
2021/10/17 01:29:17;;;;;;;14.43;8.38;;;7.10;99.90;;;;;;2066080;28;20041;-68
2021/10/17 01:30:18;;;;;;;7.63;6.80;;;7.10;99.90;;;;;;2071197;28;20556;-67
2021/10/17 01:31:18;;;;;;;11.52;7.38;;;7.20;99.90;;;;;;2068624;28;20033;-67
2021/10/17 01:32:19;;;;;;;11.32;8.02;;;7.10;99.90;;;;;;2067638;28;20093;-68
2021/10/17 01:33:19;;;;;;;12.68;7.65;;;7.10;99.90;;;;;;2063355;28;20406;-68
2021/10/17 01:34:22;;;;;;;10.75;7.18;;;7.10;99.90;;;;;;2063048;28;20018;-67
2021/10/17 01:35:23;;;;;;;12.73;8.35;;;7.20;99.90;;;;;;2063642;28;20815;-67
2021/10/17 01:36:30;;;;;;;10.35;7.32;;;7.10;99.90;;;;;;2065975;28;20375;-67
2021/10/17 01:37:31;;;;;;;14.77;7.38;;;7.10;99.90;;;;;;2066703;28;20658;-67
2021/10/17 01:38:31;;;;;;;13.00;7.82;;;7.10;99.90;;;;;;2069226;28;20030;-67
2021/10/17 01:39:32;;;;;;;11.05;7.72;;;7.10;99.90;;;;;;2069783;28;20486;-67
2021/10/17 01:40:33;;;;;;;12.88;7.70;;;7.10;99.90;;;;;;2066282;28;20129;-68
2021/10/17 01:41:34;;;;;;;12.02;7.68;;;7.10;99.90;;;;;;2069903;28;20030;-67
2021/10/17 01:42:35;;;;;;;10.60;6.97;;;7.10;99.90;;;;;;2064636;28;20089;-68
2021/10/17 01:43:35;;;;;;;11.40;7.28;;;7.10;99.90;;;;;;2063200;28;20058;-68
2021/10/17 01:44:37;;;;;;;11.07;7.35;;;7.10;99.90;;;;;;2064688;28;20110;-67
2021/10/17 01:45:38;;;;;;;10.88;7.20;;;7.10;99.90;;;;;;2067627;28;20033;-67
2021/10/17 01:46:39;;;;;;;13.15;8.10;;;7.10;99.90;;;;;;2071075;28;20105;-67
2021/10/17 01:47:50;;;;;;;9.57;7.47;;;7.10;99.90;;;;;;2064497;28;20485;-68
2021/10/17 01:48:50;;;;;;;7.75;6.75;;;7.10;99.90;;;;;;2070279;28;20105;-68
2021/10/17 01:49:51;;;;;;;11.50;7.05;;;7.10;99.90;;;;;;2070541;28;20489;-67
2021/10/17 01:50:51;;;;;;;11.45;6.65;;;7.10;99.90;;;;;;2063684;28;20034;-68
2021/10/17 01:51:52;;;;;;;12.10;7.13;;;7.10;99.90;;;;;;2063138;28;20036;-67
2021/10/17 01:52:52;;;;;;;10.63;7.07;;;7.10;99.90;;;;;;2068039;28;20037;-67
2021/10/17 01:53:53;;;;;;;11.70;6.90;;;7.10;99.90;;;;;;2065302;28;20034;-68
2021/10/17 01:54:53;;;;;;;10.48;7.28;;;7.10;99.90;;;;;;2069845;28;20104;-67
2021/10/17 01:55:59;;;;;;;9.90;6.93;;;7.10;99.90;;;;;;2063239;28;20638;-67
2021/10/17 01:57:00;;;;;;;8.77;6.47;;;7.20;99.90;;;;;;2066599;28;20528;-67
2021/10/17 01:58:00;;;;;;;11.55;7.22;;;7.10;99.90;;;;;;2071007;28;20532;-67
2021/10/17 01:59:01;;;;;;;11.23;6.88;;;7.10;99.90;;;;;;2066204;28;20486;-67
2021/10/17 02:00:05;;;;;;;9.02;6.93;;;7.20;99.90;;;;;;2067946;28;20034;-68
2021/10/17 02:01:06;;;;;;;11.82;7.45;;;7.20;99.90;;;;;;2066501;28;20026;-67
2021/10/17 02:02:06;;;;;;;10.02;6.78;;;7.20;99.90;;;;;;2067915;28;20026;-67
2021/10/17 02:03:07;;;;;;;8.85;6.22;;;7.20;99.90;;;;;;2067801;28;20072;-67
2021/10/17 02:04:07;;;;;;;12.00;7.03;;;7.20;99.90;;;;;;2072463;28;20029;-67
2021/10/17 02:05:08;;;;;;;11.98;7.30;;;7.20;99.90;;;;;;2067354;28;20035;-68
2021/10/17 02:06:09;;;;;;;8.73;6.55;;;7.20;99.90;;;;;;2064446;28;20054;-68
2021/10/17 02:07:09;;;;;;;10.38;6.88;;;7.20;99.90;;;;;;2067644;28;20029;-67
2021/10/17 02:08:10;;;;;;;8.98;6.68;;;7.20;99.90;;;;;;2068849;28;20030;-68
2021/10/17 02:09:10;;;;;;;9.75;7.07;;;7.20;99.90;;;;;;2068041;28;20096;-68
2021/10/17 02:10:11;;;;;;;10.50;6.85;;;7.20;99.90;;;;;;2068649;28;20022;-68
2021/10/17 02:11:12;;;;;;;11.10;6.90;;;7.20;99.90;;;;;;2071176;28;20025;-68
2021/10/17 02:12:14;;;;;;;8.50;6.63;;;7.20;99.90;;;;;;2064444;28;20521;-67
2021/10/17 02:13:15;;;;;;;9.80;6.55;;;7.30;99.90;;;;;;2068823;28;20511;-68
2021/10/17 02:14:15;;;;;;;10.93;6.03;;;7.20;99.90;;;;;;2073740;28;20374;-68
2021/10/17 02:15:16;;;;;;;11.75;7.18;;;7.20;99.90;;;;;;2066122;28;20516;-68
2021/10/17 02:16:17;;;;;;;11.68;7.30;;;7.30;99.90;;;;;;2065743;28;20622;-68
2021/10/17 02:17:17;;;;;;;12.80;7.18;;;7.30;99.90;;;;;;2066140;28;20105;-68
2021/10/17 02:18:18;;;;;;;9.52;6.45;;;7.30;99.90;;;;;;2070021;28;20022;-68
2021/10/17 02:19:18;;;;;;;11.85;6.53;;;7.30;99.90;;;;;;2069124;28;20022;-68
2021/10/17 02:20:19;;;;;;;10.55;6.47;;;7.30;99.90;;;;;;2065749;28;20727;-67
2021/10/17 02:21:19;;;;;;;9.85;6.22;;;7.30;99.90;;;;;;2065667;28;20097;-68
2021/10/17 02:22:20;;;;;;;9.55;6.45;;;7.30;99.90;;;;;;2069793;28;20374;-67
2021/10/17 02:23:21;;;;;;;14.40;7.20;;;7.30;99.90;;;;;;2066059;28;20041;-67
2021/10/17 02:24:21;;;;;;;11.27;7.35;;;7.30;99.90;;;;;;2066059;28;20104;-68
2021/10/17 02:25:22;;;;;;;9.45;6.60;;;7.40;99.90;;;;;;2065860;28;20018;-68
2021/10/17 02:26:23;;;;;;;10.48;6.72;;;7.40;99.90;;;;;;2067340;28;20105;-68
2021/10/17 02:27:23;;;;;;;13.63;6.78;;;7.40;99.90;;;;;;2071748;28;20022;-68
2021/10/17 02:28:24;;;;;;;8.95;6.13;;;7.40;99.90;;;;;;2066339;28;20033;-68
2021/10/17 02:29:25;;;;;;;8.40;6.55;;;7.40;99.90;;;;;;2065854;28;20098;-68
2021/10/17 02:30:26;;;;;;;10.55;6.43;;;7.40;99.90;;;;;;2065754;28;20050;-68
2021/10/17 02:31:27;;;;;;;9.50;7.20;;;7.40;99.90;;;;;;2068185;28;20056;-68
2021/10/17 02:32:28;;;;;;;11.60;6.32;;;7.50;99.90;;;;;;2072447;28;20026;-68
2021/10/17 02:33:29;;;;;;;9.13;6.32;;;7.50;99.90;;;;;;2073171;28;20028;-68
2021/10/17 02:34:29;;;;;;;10.15;7.15;;;7.50;99.90;;;;;;2073140;28;20041;-68
2021/10/17 02:35:30;;;;;;;9.75;6.55;;;7.50;99.90;;;;;;2071792;28;20033;-68
2021/10/17 02:36:31;;;;;;;10.40;6.53;;;7.50;99.90;;;;;;2068007;28;20058;-68
2021/10/17 02:37:31;;;;;;;11.90;6.63;;;7.50;99.90;;;;;;2071849;28;20033;-68
2021/10/17 02:38:32;;;;;;;10.15;6.38;;;7.60;99.90;;;;;;2072436;28;20032;-68
2021/10/17 02:39:32;;;;;;;10.82;6.72;;;7.50;99.90;;;;;;2065754;28;20065;-68
2021/10/17 02:40:33;;;;;;;8.55;6.55;;;7.60;99.90;;;;;;2067584;28;20026;-68
2021/10/17 02:41:34;;;;;;;8.25;6.80;;;7.60;99.90;;;;;;2069007;28;20030;-68
2021/10/17 02:42:34;;;;;;;7.72;6.53;;;7.60;99.90;;;;;;2067521;28;20085;-68
2021/10/17 02:43:35;;;;;;;13.80;7.22;;;7.60;99.90;;;;;;2065551;28;20026;-68
2021/10/17 02:44:35;;;;;;;12.48;7.25;;;7.60;99.90;;;;;;2065978;28;20054;-68
2021/10/17 02:45:36;;;;;;;9.70;7.32;;;7.60;99.90;;;;;;2067538;28;20022;-68
2021/10/17 02:46:36;;;;;;;11.23;7.30;;;7.60;99.90;;;;;;2069885;28;20022;-68
2021/10/17 02:47:37;;;;;;;12.77;8.38;;;7.70;99.90;;;;;;2066115;28;20033;-68
2021/10/17 02:48:37;;;;;;;14.55;8.93;;;7.70;99.90;;;;;;2065187;28;20029;-68
2021/10/17 02:49:38;;;;;;;13.70;9.38;;;7.70;99.90;;;;;;2065518;28;20022;-68
2021/10/17 02:50:39;;;;;;;15.82;9.48;;;7.70;99.90;;;;;;2065625;28;20031;-68
2021/10/17 02:51:39;;;;;;;14.18;9.13;;;7.70;99.90;;;;;;2068764;28;20493;-68
2021/10/17 02:52:40;;;;;;;15.68;8.85;;;7.70;99.90;;;;;;2070194;28;20121;-68
2021/10/17 02:53:40;;;;;;;16.15;9.57;;;7.80;99.90;;;;;;2069375;28;20034;-68
2021/10/17 02:54:41;;;;;;;13.52;9.13;;;7.80;99.90;;;;;;2065853;28;20489;-68
2021/10/17 02:55:41;;;;;;;12.93;8.75;;;7.80;99.90;;;;;;2068819;28;20478;-68
2021/10/17 02:56:42;;;;;;;17.05;9.20;;;7.80;99.90;;;;;;2070189;28;20038;-68
2021/10/17 02:57:43;;;;;;;15.73;9.75;;;7.80;99.90;;;;;;2071892;28;20030;-68
2021/10/17 02:58:44;;;;;;;17.65;9.60;;;7.80;99.90;;;;;;2066958;28;20510;-68
2021/10/17 02:59:46;;;;;;;16.30;9.00;;;7.80;99.90;;;;;;2065112;28;20030;-68
2021/10/17 03:00:47;;;;;;;14.52;9.15;;;7.80;99.90;;;;;;2065452;28;20053;-68
2021/10/17 03:01:48;;;;;;;14.43;9.10;;;7.90;99.90;;;;;;2065359;28;20038;-68
2021/10/17 03:02:48;;;;;;;15.45;9.57;;;7.90;99.90;;;;;;2068790;28;20022;-68
2021/10/17 03:03:49;;;;;;;14.88;9.20;;;7.90;99.90;;;;;;2065638;28;20484;-68
2021/10/17 03:04:49;;;;;;;15.30;9.02;;;7.90;99.90;;;;;;2067831;28;20053;-68
2021/10/17 03:05:50;;;;;;;18.52;8.73;;;7.90;99.90;;;;;;2072841;28;20030;-68
2021/10/17 03:06:50;;;;;;;16.75;9.70;;;7.90;99.90;;;;;;2072684;28;20026;-68
2021/10/17 03:07:51;;;;;;;15.90;9.05;;;7.90;99.90;;;;;;2071513;28;20067;-68
2021/10/17 03:08:53;;;;;;;18.30;7.53;;;8.00;99.90;;;;;;2064980;28;20474;-68
2021/10/17 03:09:53;;;;;;;15.80;8.35;;;8.00;99.90;;;;;;2071640;28;20026;-68
2021/10/17 03:10:54;;;;;;;16.85;8.50;;;8.00;99.90;;;;;;2071568;28;20069;-68
2021/10/17 03:11:54;;;;;;;14.95;8.65;;;8.10;99.90;;;;;;2064951;28;20029;-68
2021/10/17 03:12:55;;;;;;;13.35;7.63;;;8.10;99.90;;;;;;2067029;28;20484;-68
2021/10/17 03:13:55;;;;;;;15.70;8.25;;;8.10;99.90;;;;;;2071850;28;20030;-68
2021/10/17 03:14:56;;;;;;;13.40;8.10;;;8.10;99.90;;;;;;2066381;28;20106;-68
2021/10/17 03:15:57;;;;;;;15.07;7.82;;;8.10;99.90;;;;;;2064110;28;20023;-68
2021/10/17 03:16:58;;;;;;;15.65;8.10;;;8.10;99.90;;;;;;2064127;28;20027;-68
2021/10/17 03:17:59;;;;;;;16.77;7.88;;;8.20;99.90;;;;;;2073180;28;20573;-68
2021/10/17 03:18:59;;;;;;;14.00;7.82;;;8.20;99.90;;;;;;2078306;28;20061;-68
2021/10/17 03:20:00;;;;;;;12.98;7.63;;;8.20;99.90;;;;;;2064907;28;20085;-68
2021/10/17 03:21:01;;;;;;;17.90;7.45;;;8.20;99.90;;;;;;2063898;28;20463;-68
2021/10/17 03:22:01;;;;;;;14.85;8.30;;;8.30;99.90;;;;;;2072577;28;20025;-68
2021/10/17 03:23:02;;;;;;;15.98;7.72;;;8.30;99.90;;;;;;2066454;28;20053;-68
2021/10/17 03:24:02;;;;;;;13.10;7.13;;;8.30;99.90;;;;;;2066149;28;20025;-68
2021/10/17 03:25:04;;;;;;;15.15;7.63;;;8.30;99.90;;;;;;2070371;28;20025;-68
2021/10/17 03:26:05;;;;;;;19.67;8.02;;;8.40;99.90;;;;;;2068113;28;20038;-68
2021/10/17 03:27:05;;;;;;;13.18;6.95;;;8.40;99.90;;;;;;2067308;28;20037;-68
2021/10/17 03:28:06;;;;;;;18.70;7.20;;;8.40;99.90;;;;;;2064762;28;20022;-68
2021/10/17 03:29:06;;;;;;;13.70;7.10;;;8.40;99.90;;;;;;2064579;28;20018;-68
2021/10/17 03:30:07;;;;;;;15.73;7.43;;;8.50;99.90;;;;;;2064381;28;20073;-68
2021/10/17 03:31:08;;;;;;;16.10;7.57;;;8.50;99.90;;;;;;2064299;28;20414;-68
2021/10/17 03:32:10;;;;;;;16.98;8.38;;;8.50;99.90;;;;;;2066880;28;20068;-68
2021/10/17 03:33:10;;;;;;;18.27;7.70;;;8.60;99.90;;;;;;2066865;28;20034;-68
2021/10/17 03:34:11;;;;;;;18.48;7.90;;;8.60;99.90;;;;;;2063890;28;20049;-68
2021/10/17 03:35:11;;;;;;;15.20;7.53;;;8.60;99.90;;;;;;2064346;28;20394;-69
2021/10/17 03:36:12;;;;;;;14.52;7.45;;;8.60;99.90;;;;;;2067169;28;20019;-69
2021/10/17 03:37:13;;;;;;;17.38;8.65;;;8.60;99.90;;;;;;2070475;28;20410;-69
2021/10/17 03:38:13;;;;;;;13.20;7.97;;;8.70;99.90;;;;;;2070874;28;20516;-68
2021/10/17 03:39:14;;;;;;;18.48;8.15;;;8.70;99.90;;;;;;2066149;28;20072;-68
2021/10/17 03:40:14;;;;;;;13.45;7.55;;;8.70;99.90;;;;;;2064879;28;20022;-68
2021/10/17 03:41:15;;;;;;;17.17;7.68;;;8.70;99.90;;;;;;2072147;28;20018;-68
2021/10/17 03:42:16;;;;;;;15.52;7.75;;;8.80;99.90;;;;;;2071890;28;20065;-68
2021/10/17 03:43:16;;;;;;;16.83;7.55;;;8.80;99.90;;;;;;2071323;28;20029;-68
2021/10/17 03:44:17;;;;;;;15.63;8.25;;;8.80;99.90;;;;;;2065677;28;20023;-68
2021/10/17 03:45:17;;;;;;;17.20;7.50;;;8.80;99.90;;;;;;2068409;28;20042;-68
2021/10/17 03:46:20;;;;;;;13.45;7.47;;;8.80;99.90;;;;;;2071903;28;20493;-68
2021/10/17 03:47:20;;;;;;;12.98;7.45;;;8.80;99.90;;;;;;2067191;28;20459;-68
2021/10/17 03:48:21;;;;;;;16.38;8.40;;;8.90;99.90;;;;;;2069817;28;20382;-68
2021/10/17 03:49:21;;;;;;;19.17;8.32;;;8.90;99.90;;;;;;2063845;28;20473;-68
2021/10/17 03:50:23;;;;;;;16.80;8.02;;;8.90;99.90;;;;;;2063663;28;20105;-68
2021/10/17 03:51:23;;;;;;;15.75;8.20;;;8.90;99.90;;;;;;2063990;28;20026;-68
2021/10/17 03:52:24;;;;;;;13.50;7.43;;;8.90;99.90;;;;;;2066488;28;20153;-68
2021/10/17 03:53:24;;;;;;;13.52;7.85;;;8.90;99.90;;;;;;2069572;28;20030;-68
2021/10/17 03:54:25;;;;;;;20.85;8.43;;;8.90;99.90;;;;;;2069482;28;20377;-68
2021/10/17 03:55:26;;;;;;;10.55;7.57;;;8.90;99.90;;;;;;2066319;28;20025;-68
2021/10/17 03:56:27;;;;;;;14.07;7.63;;;8.90;99.90;;;;;;2063874;28;20027;-68
2021/10/17 03:57:27;;;;;;;13.48;7.70;;;8.90;99.90;;;;;;2068088;28;20092;-68
2021/10/17 03:58:28;;;;;;;14.52;8.18;;;9.00;99.90;;;;;;2067389;28;20100;-68
2021/10/17 03:59:28;;;;;;;14.80;7.88;;;8.90;99.90;;;;;;2074992;28;20025;-68
2021/10/17 04:00:29;;;;;;;14.52;8.13;;;9.00;99.90;;;;;;2071463;28;20044;-68
2021/10/17 04:01:30;;;;;;;16.50;8.35;;;9.00;99.90;;;;;;2063863;28;20517;-68
2021/10/17 04:02:30;;;;;;;17.45;7.57;;;9.00;99.90;;;;;;2070086;28;20030;-68
2021/10/17 04:03:31;;;;;;;14.68;7.90;;;9.00;99.90;;;;;;2066343;28;20032;-68
2021/10/17 04:04:32;;;;;;;12.75;7.97;;;9.00;99.90;;;;;;2063762;28;20378;-68
2021/10/17 04:05:32;;;;;;;16.30;7.55;;;9.00;99.90;;;;;;2063828;28;20018;-68
2021/10/17 04:06:35;;;;;;;15.23;8.43;;;9.10;99.90;;;;;;2066053;28;20038;-68
2021/10/17 04:07:37;;;;;;;14.95;8.32;;;9.10;99.90;;;;;;2072009;28;20358;-68
2021/10/17 04:08:39;;;;;;;10.88;6.70;;;9.10;99.90;;;;;;2064859;28;20026;-68
2021/10/17 04:09:39;;;;;;;11.38;6.90;;;9.10;99.90;;;;;;2066851;28;20041;-68
2021/10/17 04:10:40;;;;;;;14.15;7.90;;;9.10;99.90;;;;;;2071956;28;20041;-69
2021/10/17 04:11:41;;;;;;;16.65;8.20;;;9.10;99.90;;;;;;2065571;28;20393;-68
2021/10/17 04:12:41;;;;;;;13.82;7.72;;;9.10;99.90;;;;;;2063719;28;20383;-68
2021/10/17 04:13:42;;;;;;;14.65;7.18;;;9.10;99.90;;;;;;2068706;28;20050;-68
2021/10/17 04:14:42;;;;;;;14.15;8.02;;;9.10;99.90;;;;;;2064153;28;20062;-69
2021/10/17 04:15:43;;;;;;;12.38;7.97;;;9.20;99.90;;;;;;2063590;28;20033;-68
2021/10/17 04:16:43;;;;;;;11.93;7.95;;;9.20;99.90;;;;;;2069356;28;20030;-68
2021/10/17 04:17:44;;;;;;;13.15;8.23;;;9.20;99.90;;;;;;2069270;28;20483;-68
2021/10/17 04:18:44;;;;;;;15.57;8.25;;;9.20;99.90;;;;;;2071406;28;20030;-68
2021/10/17 04:19:45;;;;;;;14.45;7.68;;;9.20;99.90;;;;;;2065970;28;20026;-68
2021/10/17 04:20:45;;;;;;;16.38;7.53;;;9.20;99.90;;;;;;2064902;28;20105;-68
2021/10/17 04:21:46;;;;;;;12.60;7.80;;;9.20;99.90;;;;;;2063810;28;20034;-68
2021/10/17 04:22:46;;;;;;;12.27;7.28;;;9.20;99.90;;;;;;2063739;28;20034;-68
2021/10/17 04:23:47;;;;;;;14.00;7.93;;;9.20;99.90;;;;;;2063614;28;20034;-68
2021/10/17 04:24:47;;;;;;;12.00;7.75;;;9.20;99.90;;;;;;2063805;28;20032;-68
2021/10/17 04:25:48;;;;;;;17.42;7.63;;;9.20;99.90;;;;;;2064202;28;20109;-68
2021/10/17 04:26:49;;;;;;;12.80;7.45;;;9.20;99.90;;;;;;2069347;28;20088;-68
2021/10/17 04:27:49;;;;;;;17.58;7.72;;;9.20;99.90;;;;;;2068945;28;20026;-68
2021/10/17 04:28:50;;;;;;;12.73;7.70;;;9.20;99.90;;;;;;2070446;28;20072;-68
2021/10/17 04:29:50;;;;;;;14.15;7.40;;;9.20;99.90;;;;;;2062814;28;20030;-68
2021/10/17 04:30:51;;;;;;;17.65;8.30;;;9.20;99.90;;;;;;2063921;28;20041;-68
2021/10/17 04:31:51;;;;;;;12.38;7.45;;;9.20;99.90;;;;;;2064448;28;20061;-68
2021/10/17 04:32:52;;;;;;;12.85;7.55;;;9.20;99.90;;;;;;2063635;28;20030;-68
2021/10/17 04:33:52;;;;;;;15.57;7.53;;;9.20;99.90;;;;;;2063660;28;20041;-68
2021/10/17 04:34:53;;;;;;;14.68;7.53;;;9.20;99.90;;;;;;2063997;28;20057;-68
2021/10/17 04:35:53;;;;;;;15.02;7.13;;;9.20;99.90;;;;;;2063281;28;20029;-68
2021/10/17 04:36:55;;;;;;;14.35;7.63;;;9.20;99.90;;;;;;2068510;28;20474;-68
2021/10/17 04:37:55;;;;;;;13.27;7.88;;;9.20;99.90;;;;;;2068775;28;20018;-68
2021/10/17 04:38:56;;;;;;;10.60;7.35;;;9.20;99.90;;;;;;2066520;28;20038;-68
2021/10/17 04:39:57;;;;;;;15.23;7.63;;;9.20;99.90;;;;;;2063649;28;20474;-68
2021/10/17 04:40:57;;;;;;;13.15;7.63;;;9.20;99.90;;;;;;2069160;28;20468;-68
2021/10/17 04:41:59;;;;;;;14.40;7.68;;;9.20;99.90;;;;;;2069568;28;20105;-68
2021/10/17 04:43:00;;;;;;;13.05;7.53;;;9.20;99.90;;;;;;2063682;28;20118;-68
2021/10/17 04:44:02;;;;;;;13.07;7.30;;;9.30;99.90;;;;;;2064765;28;20058;-68
2021/10/17 04:45:06;;;;;;;16.38;7.93;;;9.20;99.90;;;;;;2064375;28;20463;-68
2021/10/17 04:46:08;;;;;;;16.65;8.07;;;9.30;99.90;;;;;;2064715;28;20026;-69
2021/10/17 04:47:08;;;;;;;11.57;7.35;;;9.30;99.90;;;;;;2066965;28;20034;-68
2021/10/17 04:48:09;;;;;;;14.07;7.57;;;9.30;99.90;;;;;;2063424;28;20098;-68
2021/10/17 04:49:09;;;;;;;15.82;8.10;;;9.30;99.90;;;;;;2063953;28;20041;-68
2021/10/17 04:50:10;;;;;;;16.13;7.65;;;9.30;99.90;;;;;;2063759;28;20023;-68
2021/10/17 04:51:10;;;;;;;13.70;7.65;;;9.30;99.90;;;;;;2063352;28;20449;-69
2021/10/17 04:52:11;;;;;;;12.90;7.43;;;9.30;99.90;;;;;;2063682;28;20033;-68
2021/10/17 04:53:11;;;;;;;16.50;7.63;;;9.30;99.90;;;;;;2063165;28;20371;-68
2021/10/17 04:54:12;;;;;;;14.05;7.40;;;9.20;99.90;;;;;;2065374;28;20025;-68
2021/10/17 04:55:13;;;;;;;14.60;7.35;;;9.30;99.90;;;;;;2068019;28;20021;-68
2021/10/17 04:56:14;;;;;;;11.15;7.57;;;9.30;99.90;;;;;;2071516;28;20034;-68
2021/10/17 04:57:15;;;;;;;10.60;6.82;;;9.30;99.90;;;;;;2071484;28;20029;-68
2021/10/17 04:58:16;;;;;;;15.73;8.00;;;9.30;99.90;;;;;;2068654;28;20034;-68
2021/10/17 04:59:20;;;;;;;11.50;7.47;;;9.30;99.90;;;;;;2063637;28;20466;-68
2021/10/17 05:00:21;;;;;;;12.15;6.93;;;9.30;99.90;;;;;;2063480;28;20014;-68
2021/10/17 05:01:22;;;;;;;10.55;6.95;;;9.40;99.90;;;;;;2063496;28;20019;-68
2021/10/17 05:02:22;;;;;;;16.88;7.88;;;9.40;99.90;;;;;;2071707;28;20049;-68
2021/10/17 05:03:23;;;;;;;12.77;7.18;;;9.40;99.90;;;;;;2069027;28;20150;-68
2021/10/17 05:04:24;;;;;;;13.48;6.75;;;9.40;99.90;;;;;;2071596;28;20024;-68
2021/10/17 05:05:24;;;;;;;14.88;7.60;;;9.40;99.90;;;;;;2063411;28;20035;-68
2021/10/17 05:06:26;;;;;;;13.85;7.80;;;9.40;99.90;;;;;;2063561;28;20029;-68
2021/10/17 05:07:26;;;;;;;15.45;7.47;;;9.40;99.90;;;;;;2063326;28;20898;-68
2021/10/17 05:08:27;;;;;;;12.40;7.45;;;9.40;99.90;;;;;;2063413;28;20427;-68
2021/10/17 05:09:27;;;;;;;12.30;7.45;;;9.40;99.90;;;;;;2068654;28;20757;-68
2021/10/17 05:10:28;;;;;;;12.98;7.05;;;9.40;99.90;;;;;;2064026;28;20379;-68
2021/10/17 05:11:28;;;;;;;11.98;6.28;;;9.40;99.90;;;;;;2063216;28;20027;-68
2021/10/17 05:12:29;;;;;;;11.43;6.95;;;9.40;99.90;;;;;;2066459;28;20033;-68
2021/10/17 05:13:30;;;;;;;14.35;6.60;;;9.50;99.90;;;;;;2063323;28;20041;-68
2021/10/17 05:14:31;;;;;;;11.68;6.85;;;9.50;99.90;;;;;;2063679;28;20074;-68
2021/10/17 05:15:31;;;;;;;10.07;7.00;;;9.50;99.90;;;;;;2063412;28;20088;-68
2021/10/17 05:16:35;;;;;;;8.50;6.03;;;9.50;99.90;;;;;;2069313;28;20030;-68
2021/10/17 05:17:35;;;;;;;12.43;6.40;;;9.50;99.90;;;;;;2068854;28;20145;-68